sensor_id;sensor_type;location;lat;lon;timestamp;temperature;humidity
14093;DHT22;7123;49.468;10.992;2023-04-07T00:00:41;8.60;99.90
14093;DHT22;7123;49.468;10.992;2023-04-07T00:03:08;8.60;99.90
14093;DHT22;7123;49.468;10.992;2023-04-07T00:05:34;8.50;99.90
14093;DHT22;7123;49.468;10.992;2023-04-07T00:08:01;8.60;99.90
14093;DHT22;7123;49.468;10.992;2023-04-07T00:10:28;8.50;99.90
14093;DHT22;7123;49.468;10.992;2023-04-07T00:12:54;8.50;99.90
14093;DHT22;7123;49.468;10.992;2023-04-07T00:15:21;8.50;99.90
14093;DHT22;7123;49.468;10.992;2023-04-07T00:17:48;8.50;99.90
14093;DHT22;7123;49.468;10.992;2023-04-07T00:20:15;8.40;99.90
14093;DHT22;7123;49.468;10.992;2023-04-07T00:22:41;8.10;99.90
14093;DHT22;7123;49.468;10.992;2023-04-07T00:25:08;7.50;99.90
14093;DHT22;7123;49.468;10.992;2023-04-07T00:27:36;7.40;99.90
14093;DHT22;7123;49.468;10.992;2023-04-07T00:30:03;7.30;99.90
14093;DHT22;7123;49.468;10.992;2023-04-07T00:32:30;7.00;99.90
14093;DHT22;7123;49.468;10.992;2023-04-07T00:34:56;6.40;99.90
14093;DHT22;7123;49.468;10.992;2023-04-07T00:37:27;6.20;99.90
14093;DHT22;7123;49.468;10.992;2023-04-07T00:39:54;6.40;99.90
14093;DHT22;7123;49.468;10.992;2023-04-07T00:42:22;6.50;99.90
14093;DHT22;7123;49.468;10.992;2023-04-07T00:44:49;6.80;99.90
14093;DHT22;7123;49.468;10.992;2023-04-07T00:47:16;7.00;99.90
14093;DHT22;7123;49.468;10.992;2023-04-07T00:49:42;7.20;99.90
14093;DHT22;7123;49.468;10.992;2023-04-07T00:52:09;7.40;99.90
14093;DHT22;7123;49.468;10.992;2023-04-07T00:54:38;7.50;99.90
14093;DHT22;7123;49.468;10.992;2023-04-07T00:57:05;7.60;99.90
14093;DHT22;7123;49.468;10.992;2023-04-07T00:59:32;7.70;99.90
14093;DHT22;7123;49.468;10.992;2023-04-07T01:02:09;7.70;99.90
14093;DHT22;7123;49.468;10.992;2023-04-07T01:07:31;7.80;99.90
14093;DHT22;7123;49.468;10.992;2023-04-07T01:10:05;7.90;99.90
14093;DHT22;7123;49.468;10.992;2023-04-07T01:12:41;7.90;99.90
14093;DHT22;7123;49.468;10.992;2023-04-07T01:15:11;7.90;99.90
14093;DHT22;7123;49.468;10.992;2023-04-07T01:18:14;7.90;99.90
14093;DHT22;7123;49.468;10.992;2023-04-07T01:20:43;7.90;99.90
14093;DHT22;7123;49.468;10.992;2023-04-07T01:23:20;7.90;99.90
14093;DHT22;7123;49.468;10.992;2023-04-07T01:26:29;7.90;99.90
14093;DHT22;7123;49.468;10.992;2023-04-07T01:31:45;8.00;99.90
14093;DHT22;7123;49.468;10.992;2023-04-07T01:34:14;8.00;99.90
14093;DHT22;7123;49.468;10.992;2023-04-07T01:36:43;7.90;99.90
14093;DHT22;7123;49.468;10.992;2023-04-07T01:39:11;7.90;99.90
14093;DHT22;7123;49.468;10.992;2023-04-07T01:41:38;7.90;99.90
14093;DHT22;7123;49.468;10.992;2023-04-07T01:44:07;7.90;99.90
14093;DHT22;7123;49.468;10.992;2023-04-07T01:46:35;7.90;99.90
14093;DHT22;7123;49.468;10.992;2023-04-07T01:49:03;7.90;99.90
14093;DHT22;7123;49.468;10.992;2023-04-07T01:51:31;7.80;99.90
14093;DHT22;7123;49.468;10.992;2023-04-07T01:54:00;7.80;99.90
14093;DHT22;7123;49.468;10.992;2023-04-07T01:56:27;7.80;99.90
14093;DHT22;7123;49.468;10.992;2023-04-07T01:58:54;7.80;99.90
14093;DHT22;7123;49.468;10.992;2023-04-07T02:01:21;7.80;99.90
14093;DHT22;7123;49.468;10.992;2023-04-07T02:06:55;7.80;99.90
14093;DHT22;7123;49.468;10.992;2023-04-07T02:09:23;7.80;99.90
14093;DHT22;7123;49.468;10.992;2023-04-07T02:11:52;7.90;99.90
14093;DHT22;7123;49.468;10.992;2023-04-07T02:14:21;7.90;99.90
14093;DHT22;7123;49.468;10.992;2023-04-07T02:16:50;7.90;99.90
14093;DHT22;7123;49.468;10.992;2023-04-07T02:19:18;7.90;99.90
14093;DHT22;7123;49.468;10.992;2023-04-07T02:21:45;7.80;99.90
14093;DHT22;7123;49.468;10.992;2023-04-07T02:24:12;7.80;99.90
14093;DHT22;7123;49.468;10.992;2023-04-07T02:26:39;8.00;99.90
14093;DHT22;7123;49.468;10.992;2023-04-07T02:29:06;7.80;99.90
14093;DHT22;7123;49.468;10.992;2023-04-07T02:31:33;7.90;99.90
14093;DHT22;7123;49.468;10.992;2023-04-07T02:33:59;7.80;99.90
14093;DHT22;7123;49.468;10.992;2023-04-07T02:36:26;7.80;99.90
14093;DHT22;7123;49.468;10.992;2023-04-07T02:38:53;7.80;99.90
14093;DHT22;7123;49.468;10.992;2023-04-07T02:41:20;7.80;99.90
14093;DHT22;7123;49.468;10.992;2023-04-07T02:43:47;7.80;99.90
14093;DHT22;7123;49.468;10.992;2023-04-07T02:46:13;7.80;99.90
14093;DHT22;7123;49.468;10.992;2023-04-07T02:48:42;7.70;99.90
14093;DHT22;7123;49.468;10.992;2023-04-07T02:51:08;7.50;99.90
14093;DHT22;7123;49.468;10.992;2023-04-07T02:53:35;7.10;99.90
14093;DHT22;7123;49.468;10.992;2023-04-07T02:56:02;6.50;99.90
14093;DHT22;7123;49.468;10.992;2023-04-07T02:58:29;6.50;99.90
14093;DHT22;7123;49.468;10.992;2023-04-07T03:00:55;6.50;99.90
14093;DHT22;7123;49.468;10.992;2023-04-07T03:03:22;6.60;99.90
14093;DHT22;7123;49.468;10.992;2023-04-07T03:05:49;6.70;99.90
14093;DHT22;7123;49.468;10.992;2023-04-07T03:08:16;6.80;99.90
14093;DHT22;7123;49.468;10.992;2023-04-07T03:10:42;7.00;99.90
14093;DHT22;7123;49.468;10.992;2023-04-07T03:13:09;7.10;99.90
14093;DHT22;7123;49.468;10.992;2023-04-07T03:15:38;7.20;99.90
14093;DHT22;7123;49.468;10.992;2023-04-07T03:18:04;7.30;99.90
14093;DHT22;7123;49.468;10.992;2023-04-07T03:20:31;7.30;99.90
14093;DHT22;7123;49.468;10.992;2023-04-07T03:22:58;7.40;99.90
14093;DHT22;7123;49.468;10.992;2023-04-07T03:25:25;7.40;99.90
14093;DHT22;7123;49.468;10.992;2023-04-07T03:27:52;7.40;99.90
14093;DHT22;7123;49.468;10.992;2023-04-07T03:30:19;7.50;99.90
14093;DHT22;7123;49.468;10.992;2023-04-07T03:32:47;7.50;99.90
14093;DHT22;7123;49.468;10.992;2023-04-07T03:35:13;7.50;99.90
14093;DHT22;7123;49.468;10.992;2023-04-07T03:37:40;7.50;99.90
14093;DHT22;7123;49.468;10.992;2023-04-07T03:40:07;7.50;99.90
14093;DHT22;7123;49.468;10.992;2023-04-07T03:42:34;7.50;99.90
14093;DHT22;7123;49.468;10.992;2023-04-07T03:45:00;7.50;99.90
14093;DHT22;7123;49.468;10.992;2023-04-07T03:47:27;7.50;99.90
14093;DHT22;7123;49.468;10.992;2023-04-07T03:49:54;7.60;99.90
14093;DHT22;7123;49.468;10.992;2023-04-07T03:52:20;7.60;99.90
14093;DHT22;7123;49.468;10.992;2023-04-07T03:54:47;7.60;99.90
14093;DHT22;7123;49.468;10.992;2023-04-07T03:57:14;7.60;99.90
14093;DHT22;7123;49.468;10.992;2023-04-07T03:59:41;7.60;99.90
14093;DHT22;7123;49.468;10.992;2023-04-07T04:02:07;7.50;99.90
14093;DHT22;7123;49.468;10.992;2023-04-07T04:04:34;7.60;99.90
14093;DHT22;7123;49.468;10.992;2023-04-07T04:07:01;7.60;99.90
14093;DHT22;7123;49.468;10.992;2023-04-07T04:09:28;7.60;99.90
14093;DHT22;7123;49.468;10.992;2023-04-07T04:11:55;7.60;99.90
14093;DHT22;7123;49.468;10.992;2023-04-07T04:14:22;7.60;99.90
14093;DHT22;7123;49.468;10.992;2023-04-07T04:16:49;7.60;99.90
14093;DHT22;7123;49.468;10.992;2023-04-07T04:19:15;7.60;99.90
14093;DHT22;7123;49.468;10.992;2023-04-07T04:21:42;7.60;99.90
14093;DHT22;7123;49.468;10.992;2023-04-07T04:24:09;7.60;99.90
14093;DHT22;7123;49.468;10.992;2023-04-07T04:26:36;7.50;99.90
14093;DHT22;7123;49.468;10.992;2023-04-07T04:29:02;7.50;99.90
14093;DHT22;7123;49.468;10.992;2023-04-07T04:31:29;7.50;99.90
14093;DHT22;7123;49.468;10.992;2023-04-07T04:33:56;7.50;99.90
14093;DHT22;7123;49.468;10.992;2023-04-07T04:36:23;7.50;99.90
14093;DHT22;7123;49.468;10.992;2023-04-07T04:38:49;7.50;99.90
14093;DHT22;7123;49.468;10.992;2023-04-07T04:41:16;7.40;99.90
14093;DHT22;7123;49.468;10.992;2023-04-07T04:43:43;7.40;99.90
14093;DHT22;7123;49.468;10.992;2023-04-07T04:46:10;7.40;99.90
14093;DHT22;7123;49.468;10.992;2023-04-07T04:48:37;7.40;99.90
14093;DHT22;7123;49.468;10.992;2023-04-07T04:51:04;7.40;99.90
14093;DHT22;7123;49.468;10.992;2023-04-07T04:53:31;7.40;99.90
14093;DHT22;7123;49.468;10.992;2023-04-07T04:55:58;7.40;99.90
14093;DHT22;7123;49.468;10.992;2023-04-07T04:58:24;7.50;99.90
14093;DHT22;7123;49.468;10.992;2023-04-07T05:00:54;7.40;99.90
14093;DHT22;7123;49.468;10.992;2023-04-07T05:03:23;7.60;99.90
14093;DHT22;7123;49.468;10.992;2023-04-07T05:05:53;7.50;99.90
14093;DHT22;7123;49.468;10.992;2023-04-07T05:08:20;7.50;99.90
14093;DHT22;7123;49.468;10.992;2023-04-07T05:10:46;7.50;99.90
14093;DHT22;7123;49.468;10.992;2023-04-07T05:13:13;7.50;99.90
14093;DHT22;7123;49.468;10.992;2023-04-07T05:15:40;7.50;99.90
14093;DHT22;7123;49.468;10.992;2023-04-07T05:18:07;7.50;99.90
14093;DHT22;7123;49.468;10.992;2023-04-07T05:20:34;7.50;99.90
14093;DHT22;7123;49.468;10.992;2023-04-07T05:23:00;7.50;99.90
14093;DHT22;7123;49.468;10.992;2023-04-07T05:25:28;7.50;99.90
14093;DHT22;7123;49.468;10.992;2023-04-07T05:27:56;7.50;99.90
14093;DHT22;7123;49.468;10.992;2023-04-07T05:30:22;7.60;99.90
14093;DHT22;7123;49.468;10.992;2023-04-07T05:32:49;7.50;99.90
14093;DHT22;7123;49.468;10.992;2023-04-07T05:35:16;7.60;99.90
14093;DHT22;7123;49.468;10.992;2023-04-07T05:37:43;7.50;99.90
14093;DHT22;7123;49.468;10.992;2023-04-07T05:40:10;7.60;99.90
14093;DHT22;7123;49.468;10.992;2023-04-07T05:42:36;7.60;99.90
14093;DHT22;7123;49.468;10.992;2023-04-07T05:45:03;7.60;99.90
14093;DHT22;7123;49.468;10.992;2023-04-07T05:47:31;7.50;99.90
14093;DHT22;7123;49.468;10.992;2023-04-07T05:49:57;7.60;99.90
14093;DHT22;7123;49.468;10.992;2023-04-07T05:52:24;7.60;99.90
14093;DHT22;7123;49.468;10.992;2023-04-07T05:54:51;7.60;99.90
14093;DHT22;7123;49.468;10.992;2023-04-07T05:57:17;7.60;99.90
14093;DHT22;7123;49.468;10.992;2023-04-07T05:59:44;7.60;99.90
14093;DHT22;7123;49.468;10.992;2023-04-07T06:02:12;7.60;99.90
14093;DHT22;7123;49.468;10.992;2023-04-07T06:04:39;7.70;99.90
14093;DHT22;7123;49.468;10.992;2023-04-07T06:07:06;7.70;99.90
14093;DHT22;7123;49.468;10.992;2023-04-07T06:09:33;7.70;99.90
14093;DHT22;7123;49.468;10.992;2023-04-07T06:11:59;7.70;99.90
14093;DHT22;7123;49.468;10.992;2023-04-07T06:14:27;7.70;99.90
14093;DHT22;7123;49.468;10.992;2023-04-07T06:16:53;7.80;99.90
14093;DHT22;7123;49.468;10.992;2023-04-07T06:19:20;7.80;99.90
14093;DHT22;7123;49.468;10.992;2023-04-07T06:21:47;7.80;99.90
14093;DHT22;7123;49.468;10.992;2023-04-07T06:24:13;7.80;99.90
14093;DHT22;7123;49.468;10.992;2023-04-07T06:26:40;7.80;99.90
14093;DHT22;7123;49.468;10.992;2023-04-07T06:29:07;7.80;99.90
14093;DHT22;7123;49.468;10.992;2023-04-07T06:31:34;7.90;99.90
14093;DHT22;7123;49.468;10.992;2023-04-07T06:34:00;7.90;99.90
14093;DHT22;7123;49.468;10.992;2023-04-07T06:36:27;7.90;99.90
14093;DHT22;7123;49.468;10.992;2023-04-07T06:38:54;8.00;99.90
14093;DHT22;7123;49.468;10.992;2023-04-07T06:41:21;8.00;99.90
14093;DHT22;7123;49.468;10.992;2023-04-07T06:43:48;8.10;99.90
14093;DHT22;7123;49.468;10.992;2023-04-07T06:46:17;8.10;99.90
14093;DHT22;7123;49.468;10.992;2023-04-07T06:48:44;8.10;99.90
14093;DHT22;7123;49.468;10.992;2023-04-07T06:51:12;8.10;99.90
14093;DHT22;7123;49.468;10.992;2023-04-07T06:53:38;8.20;99.90
14093;DHT22;7123;49.468;10.992;2023-04-07T06:56:08;8.20;99.90
14093;DHT22;7123;49.468;10.992;2023-04-07T06:58:36;8.20;99.90
14093;DHT22;7123;49.468;10.992;2023-04-07T07:01:03;8.30;99.90
14093;DHT22;7123;49.468;10.992;2023-04-07T07:03:31;8.20;99.90
14093;DHT22;7123;49.468;10.992;2023-04-07T07:05:58;8.30;99.90
14093;DHT22;7123;49.468;10.992;2023-04-07T07:08:26;8.30;99.90
14093;DHT22;7123;49.468;10.992;2023-04-07T07:10:53;8.40;99.90
14093;DHT22;7123;49.468;10.992;2023-04-07T07:13:22;8.40;99.90
14093;DHT22;7123;49.468;10.992;2023-04-07T07:15:49;8.40;99.90
14093;DHT22;7123;49.468;10.992;2023-04-07T07:18:17;8.50;99.90
14093;DHT22;7123;49.468;10.992;2023-04-07T07:20:44;8.50;99.90
14093;DHT22;7123;49.468;10.992;2023-04-07T07:23:11;8.50;99.90
14093;DHT22;7123;49.468;10.992;2023-04-07T07:25:38;8.50;99.90
14093;DHT22;7123;49.468;10.992;2023-04-07T07:28:04;8.50;99.90
14093;DHT22;7123;49.468;10.992;2023-04-07T07:30:31;8.50;99.90
14093;DHT22;7123;49.468;10.992;2023-04-07T07:32:58;8.50;99.90
14093;DHT22;7123;49.468;10.992;2023-04-07T07:35:25;8.50;99.90
14093;DHT22;7123;49.468;10.992;2023-04-07T07:37:52;8.50;99.90
14093;DHT22;7123;49.468;10.992;2023-04-07T07:40:18;8.50;99.90
14093;DHT22;7123;49.468;10.992;2023-04-07T07:42:45;8.60;99.90
14093;DHT22;7123;49.468;10.992;2023-04-07T07:45:12;8.70;99.90
14093;DHT22;7123;49.468;10.992;2023-04-07T07:47:40;8.80;99.90
14093;DHT22;7123;49.468;10.992;2023-04-07T07:50:07;9.00;99.90
14093;DHT22;7123;49.468;10.992;2023-04-07T07:52:34;8.90;99.90
14093;DHT22;7123;49.468;10.992;2023-04-07T07:55:01;8.90;99.90
14093;DHT22;7123;49.468;10.992;2023-04-07T07:57:27;9.00;99.90
14093;DHT22;7123;49.468;10.992;2023-04-07T07:59:56;9.10;99.90
14093;DHT22;7123;49.468;10.992;2023-04-07T08:02:23;9.10;99.90
14093;DHT22;7123;49.468;10.992;2023-04-07T08:04:56;9.10;99.90
14093;DHT22;7123;49.468;10.992;2023-04-07T08:07:22;9.10;99.90
14093;DHT22;7123;49.468;10.992;2023-04-07T08:09:49;9.10;99.90
14093;DHT22;7123;49.468;10.992;2023-04-07T08:12:16;9.10;99.90
14093;DHT22;7123;49.468;10.992;2023-04-07T08:14:43;9.10;99.90
14093;DHT22;7123;49.468;10.992;2023-04-07T08:17:09;9.20;99.90
14093;DHT22;7123;49.468;10.992;2023-04-07T08:19:37;9.20;99.90
14093;DHT22;7123;49.468;10.992;2023-04-07T08:22:04;9.20;99.90
14093;DHT22;7123;49.468;10.992;2023-04-07T08:24:33;9.30;99.90
14093;DHT22;7123;49.468;10.992;2023-04-07T08:27:06;9.20;99.90
14093;DHT22;7123;49.468;10.992;2023-04-07T08:30:03;9.20;99.90
14093;DHT22;7123;49.468;10.992;2023-04-07T08:32:49;9.20;99.90
14093;DHT22;7123;49.468;10.992;2023-04-07T08:35:23;9.30;99.90
14093;DHT22;7123;49.468;10.992;2023-04-07T08:37:50;9.40;99.90
14093;DHT22;7123;49.468;10.992;2023-04-07T08:40:16;9.40;99.90
14093;DHT22;7123;49.468;10.992;2023-04-07T08:42:47;9.40;99.90
14093;DHT22;7123;49.468;10.992;2023-04-07T08:45:17;9.50;99.90
14093;DHT22;7123;49.468;10.992;2023-04-07T08:47:45;9.50;99.90
14093;DHT22;7123;49.468;10.992;2023-04-07T08:50:16;9.50;99.90
14093;DHT22;7123;49.468;10.992;2023-04-07T08:52:50;9.60;99.90
14093;DHT22;7123;49.468;10.992;2023-04-07T08:55:19;9.60;99.90
14093;DHT22;7123;49.468;10.992;2023-04-07T08:57:46;9.70;99.90
14093;DHT22;7123;49.468;10.992;2023-04-07T09:00:13;9.70;99.90
14093;DHT22;7123;49.468;10.992;2023-04-07T09:02:43;9.80;99.90
14093;DHT22;7123;49.468;10.992;2023-04-07T09:05:12;9.80;99.90
14093;DHT22;7123;49.468;10.992;2023-04-07T09:07:40;9.80;99.90
14093;DHT22;7123;49.468;10.992;2023-04-07T09:10:09;9.80;99.90
14093;DHT22;7123;49.468;10.992;2023-04-07T09:12:36;9.90;99.90
14093;DHT22;7123;49.468;10.992;2023-04-07T09:15:05;9.90;99.90
14093;DHT22;7123;49.468;10.992;2023-04-07T09:17:35;10.00;99.90
14093;DHT22;7123;49.468;10.992;2023-04-07T09:20:02;10.10;99.90
14093;DHT22;7123;49.468;10.992;2023-04-07T09:22:40;10.20;99.90
14093;DHT22;7123;49.468;10.992;2023-04-07T09:25:21;10.20;99.90
14093;DHT22;7123;49.468;10.992;2023-04-07T09:28:00;10.30;99.90
14093;DHT22;7123;49.468;10.992;2023-04-07T09:30:28;10.40;99.90
14093;DHT22;7123;49.468;10.992;2023-04-07T09:32:56;10.40;99.90
14093;DHT22;7123;49.468;10.992;2023-04-07T09:35:23;10.40;99.90
14093;DHT22;7123;49.468;10.992;2023-04-07T09:38:08;10.30;99.90
14093;DHT22;7123;49.468;10.992;2023-04-07T09:40:35;10.20;99.90
14093;DHT22;7123;49.468;10.992;2023-04-07T09:43:14;10.30;99.90
14093;DHT22;7123;49.468;10.992;2023-04-07T09:45:42;10.40;99.90
14093;DHT22;7123;49.468;10.992;2023-04-07T09:48:19;10.40;99.90
14093;DHT22;7123;49.468;10.992;2023-04-07T09:50:46;10.50;99.90
14093;DHT22;7123;49.468;10.992;2023-04-07T09:53:17;10.60;99.90
14093;DHT22;7123;49.468;10.992;2023-04-07T09:55:49;10.80;99.90
14093;DHT22;7123;49.468;10.992;2023-04-07T09:58:16;10.80;99.90
14093;DHT22;7123;49.468;10.992;2023-04-07T10:00:44;10.90;99.90
14093;DHT22;7123;49.468;10.992;2023-04-07T10:03:11;10.90;99.90
14093;DHT22;7123;49.468;10.992;2023-04-07T10:05:39;10.90;99.90
14093;DHT22;7123;49.468;10.992;2023-04-07T10:08:05;10.90;99.90
14093;DHT22;7123;49.468;10.992;2023-04-07T10:10:33;11.00;99.90
14093;DHT22;7123;49.468;10.992;2023-04-07T10:13:04;11.00;99.90
14093;DHT22;7123;49.468;10.992;2023-04-07T10:15:31;11.10;99.90
14093;DHT22;7123;49.468;10.992;2023-04-07T10:17:58;11.20;99.90
14093;DHT22;7123;49.468;10.992;2023-04-07T10:20:26;11.20;99.90
14093;DHT22;7123;49.468;10.992;2023-04-07T10:22:57;11.20;99.90
14093;DHT22;7123;49.468;10.992;2023-04-07T10:25:28;11.20;99.90
14093;DHT22;7123;49.468;10.992;2023-04-07T10:28:05;11.30;99.90
14093;DHT22;7123;49.468;10.992;2023-04-07T10:30:33;11.30;99.90
14093;DHT22;7123;49.468;10.992;2023-04-07T10:33:01;11.40;99.90
14093;DHT22;7123;49.468;10.992;2023-04-07T10:35:28;11.40;99.90
14093;DHT22;7123;49.468;10.992;2023-04-07T10:38:14;11.40;99.90
14093;DHT22;7123;49.468;10.992;2023-04-07T10:40:42;11.40;99.90
14093;DHT22;7123;49.468;10.992;2023-04-07T10:43:09;11.50;99.90
14093;DHT22;7123;49.468;10.992;2023-04-07T10:48:19;11.60;99.90
14093;DHT22;7123;49.468;10.992;2023-04-07T10:53:33;11.30;99.90
14093;DHT22;7123;49.468;10.992;2023-04-07T10:56:00;11.20;99.90
14093;DHT22;7123;49.468;10.992;2023-04-07T10:58:33;11.20;99.90
14093;DHT22;7123;49.468;10.992;2023-04-07T11:03:28;11.40;99.90
14093;DHT22;7123;49.468;10.992;2023-04-07T11:08:39;11.70;99.90
14093;DHT22;7123;49.468;10.992;2023-04-07T11:11:10;11.90;99.90
14093;DHT22;7123;49.468;10.992;2023-04-07T11:13:43;12.00;99.90
14093;DHT22;7123;49.468;10.992;2023-04-07T11:16:13;11.90;99.90
14093;DHT22;7123;49.468;10.992;2023-04-07T11:18:40;11.90;99.90
14093;DHT22;7123;49.468;10.992;2023-04-07T11:21:08;11.90;99.90
14093;DHT22;7123;49.468;10.992;2023-04-07T11:23:39;11.90;99.90
14093;DHT22;7123;49.468;10.992;2023-04-07T11:26:07;12.00;99.90
14093;DHT22;7123;49.468;10.992;2023-04-07T11:28:44;12.20;99.90
14093;DHT22;7123;49.468;10.992;2023-04-07T11:31:19;12.30;99.90
14093;DHT22;7123;49.468;10.992;2023-04-07T11:33:54;12.40;99.90
14093;DHT22;7123;49.468;10.992;2023-04-07T11:36:29;12.40;99.90
14093;DHT22;7123;49.468;10.992;2023-04-07T11:38:58;12.50;99.90
14093;DHT22;7123;49.468;10.992;2023-04-07T11:41:26;12.40;99.90
14093;DHT22;7123;49.468;10.992;2023-04-07T11:44:22;12.40;99.90
14093;DHT22;7123;49.468;10.992;2023-04-07T11:46:59;12.40;99.90
14093;DHT22;7123;49.468;10.992;2023-04-07T11:49:28;12.40;99.90
14093;DHT22;7123;49.468;10.992;2023-04-07T11:52:00;12.30;99.90
14093;DHT22;7123;49.468;10.992;2023-04-07T11:54:41;12.30;99.90
14093;DHT22;7123;49.468;10.992;2023-04-07T11:57:08;12.20;99.90
14093;DHT22;7123;49.468;10.992;2023-04-07T11:59:41;12.20;99.90
14093;DHT22;7123;49.468;10.992;2023-04-07T12:02:08;12.20;99.90
14093;DHT22;7123;49.468;10.992;2023-04-07T12:04:38;12.40;99.90
14093;DHT22;7123;49.468;10.992;2023-04-07T12:07:20;12.40;99.90
14093;DHT22;7123;49.468;10.992;2023-04-07T12:09:47;12.30;99.90
14093;DHT22;7123;49.468;10.992;2023-04-07T12:12:27;12.30;99.90
14093;DHT22;7123;49.468;10.992;2023-04-07T12:14:55;12.30;99.90
14093;DHT22;7123;49.468;10.992;2023-04-07T12:17:22;12.40;99.90
14093;DHT22;7123;49.468;10.992;2023-04-07T12:19:49;12.40;99.90
14093;DHT22;7123;49.468;10.992;2023-04-07T12:22:15;12.40;99.90
14093;DHT22;7123;49.468;10.992;2023-04-07T12:24:42;12.50;99.90
14093;DHT22;7123;49.468;10.992;2023-04-07T12:27:09;12.50;99.90
14093;DHT22;7123;49.468;10.992;2023-04-07T12:29:36;12.60;99.90
14093;DHT22;7123;49.468;10.992;2023-04-07T12:32:04;12.60;99.90
14093;DHT22;7123;49.468;10.992;2023-04-07T12:34:30;12.50;99.90
14093;DHT22;7123;49.468;10.992;2023-04-07T12:36:57;12.50;99.90
14093;DHT22;7123;49.468;10.992;2023-04-07T12:39:24;12.50;99.90
14093;DHT22;7123;49.468;10.992;2023-04-07T12:41:51;12.50;99.90
14093;DHT22;7123;49.468;10.992;2023-04-07T12:44:18;12.50;99.90
14093;DHT22;7123;49.468;10.992;2023-04-07T12:46:45;12.60;99.90
14093;DHT22;7123;49.468;10.992;2023-04-07T12:49:12;12.70;99.90
14093;DHT22;7123;49.468;10.992;2023-04-07T12:51:39;12.90;99.90
14093;DHT22;7123;49.468;10.992;2023-04-07T12:54:06;12.90;99.90
14093;DHT22;7123;49.468;10.992;2023-04-07T12:56:33;12.90;99.90
14093;DHT22;7123;49.468;10.992;2023-04-07T12:58:59;13.00;99.90
14093;DHT22;7123;49.468;10.992;2023-04-07T13:01:26;13.10;99.90
14093;DHT22;7123;49.468;10.992;2023-04-07T13:03:53;13.30;99.90
14093;DHT22;7123;49.468;10.992;2023-04-07T13:06:20;13.30;99.90
14093;DHT22;7123;49.468;10.992;2023-04-07T13:08:47;13.30;99.90
14093;DHT22;7123;49.468;10.992;2023-04-07T13:11:14;13.20;99.90
14093;DHT22;7123;49.468;10.992;2023-04-07T13:13:41;13.10;99.90
14093;DHT22;7123;49.468;10.992;2023-04-07T13:16:09;13.10;99.90
14093;DHT22;7123;49.468;10.992;2023-04-07T13:18:36;13.10;99.90
14093;DHT22;7123;49.468;10.992;2023-04-07T13:21:04;13.00;99.90
14093;DHT22;7123;49.468;10.992;2023-04-07T13:23:51;13.00;99.90
14093;DHT22;7123;49.468;10.992;2023-04-07T13:26:19;13.10;99.90
14093;DHT22;7123;49.468;10.992;2023-04-07T13:28:46;13.00;99.90
14093;DHT22;7123;49.468;10.992;2023-04-07T13:31:13;13.10;99.90
14093;DHT22;7123;49.468;10.992;2023-04-07T13:33:42;13.20;99.90
14093;DHT22;7123;49.468;10.992;2023-04-07T13:36:08;13.10;99.90
14093;DHT22;7123;49.468;10.992;2023-04-07T13:38:35;13.00;99.90
14093;DHT22;7123;49.468;10.992;2023-04-07T13:41:02;12.80;99.90
14093;DHT22;7123;49.468;10.992;2023-04-07T13:43:29;12.60;99.90
14093;DHT22;7123;49.468;10.992;2023-04-07T13:45:56;12.40;99.90
14093;DHT22;7123;49.468;10.992;2023-04-07T13:48:23;12.50;99.90
14093;DHT22;7123;49.468;10.992;2023-04-07T13:50:49;12.60;99.90
14093;DHT22;7123;49.468;10.992;2023-04-07T13:53:16;12.50;99.90
14093;DHT22;7123;49.468;10.992;2023-04-07T13:55:44;12.70;99.90
14093;DHT22;7123;49.468;10.992;2023-04-07T13:58:14;12.70;99.90
14093;DHT22;7123;49.468;10.992;2023-04-07T14:00:41;12.80;99.90
14093;DHT22;7123;49.468;10.992;2023-04-07T14:03:07;12.90;99.90
14093;DHT22;7123;49.468;10.992;2023-04-07T14:05:36;12.90;99.90
14093;DHT22;7123;49.468;10.992;2023-04-07T14:08:02;12.90;99.90
14093;DHT22;7123;49.468;10.992;2023-04-07T14:10:29;12.80;99.90
14093;DHT22;7123;49.468;10.992;2023-04-07T14:12:56;12.60;99.90
14093;DHT22;7123;49.468;10.992;2023-04-07T14:15:23;12.40;99.90
14093;DHT22;7123;49.468;10.992;2023-04-07T14:17:49;12.10;99.90
14093;DHT22;7123;49.468;10.992;2023-04-07T14:20:16;12.00;99.90
14093;DHT22;7123;49.468;10.992;2023-04-07T14:22:43;11.90;99.90
14093;DHT22;7123;49.468;10.992;2023-04-07T14:25:10;12.60;99.90
14093;DHT22;7123;49.468;10.992;2023-04-07T14:27:36;12.90;99.90
14093;DHT22;7123;49.468;10.992;2023-04-07T14:30:04;13.20;99.90
14093;DHT22;7123;49.468;10.992;2023-04-07T14:32:31;13.40;99.90
14093;DHT22;7123;49.468;10.992;2023-04-07T14:34:59;13.60;99.90
14093;DHT22;7123;49.468;10.992;2023-04-07T14:37:29;13.60;99.90
14093;DHT22;7123;49.468;10.992;2023-04-07T14:39:56;13.40;99.90
14093;DHT22;7123;49.468;10.992;2023-04-07T14:42:26;13.30;99.90
14093;DHT22;7123;49.468;10.992;2023-04-07T14:44:55;13.20;99.90
14093;DHT22;7123;49.468;10.992;2023-04-07T14:47:22;13.30;99.90
14093;DHT22;7123;49.468;10.992;2023-04-07T14:49:49;13.30;99.90
14093;DHT22;7123;49.468;10.992;2023-04-07T14:52:19;13.30;99.90
14093;DHT22;7123;49.468;10.992;2023-04-07T14:54:47;13.40;99.90
14093;DHT22;7123;49.468;10.992;2023-04-07T14:57:14;13.70;99.90
14093;DHT22;7123;49.468;10.992;2023-04-07T14:59:42;13.90;99.90
14093;DHT22;7123;49.468;10.992;2023-04-07T15:02:08;14.10;99.90
14093;DHT22;7123;49.468;10.992;2023-04-07T15:04:35;14.20;99.90
14093;DHT22;7123;49.468;10.992;2023-04-07T15:07:02;14.20;99.90
14093;DHT22;7123;49.468;10.992;2023-04-07T15:09:29;14.00;99.90
14093;DHT22;7123;49.468;10.992;2023-04-07T15:11:55;14.00;99.90
14093;DHT22;7123;49.468;10.992;2023-04-07T15:14:22;14.00;99.90
14093;DHT22;7123;49.468;10.992;2023-04-07T15:16:49;13.90;99.90
14093;DHT22;7123;49.468;10.992;2023-04-07T15:19:21;14.00;99.90
14093;DHT22;7123;49.468;10.992;2023-04-07T15:21:48;14.20;99.90
14093;DHT22;7123;49.468;10.992;2023-04-07T15:24:14;14.20;99.90
14093;DHT22;7123;49.468;10.992;2023-04-07T15:26:42;14.10;99.90
14093;DHT22;7123;49.468;10.992;2023-04-07T15:29:08;14.10;99.90
14093;DHT22;7123;49.468;10.992;2023-04-07T15:31:35;14.30;99.90
14093;DHT22;7123;49.468;10.992;2023-04-07T15:34:02;14.50;99.90
14093;DHT22;7123;49.468;10.992;2023-04-07T15:36:29;14.50;99.90
14093;DHT22;7123;49.468;10.992;2023-04-07T15:39:01;14.50;99.90
14093;DHT22;7123;49.468;10.992;2023-04-07T15:41:29;14.50;99.90
14093;DHT22;7123;49.468;10.992;2023-04-07T15:43:58;14.30;99.90
14093;DHT22;7123;49.468;10.992;2023-04-07T15:46:26;14.30;99.90
14093;DHT22;7123;49.468;10.992;2023-04-07T15:48:53;14.50;99.90
14093;DHT22;7123;49.468;10.992;2023-04-07T15:51:19;14.70;99.90
14093;DHT22;7123;49.468;10.992;2023-04-07T15:53:46;14.80;99.90
14093;DHT22;7123;49.468;10.992;2023-04-07T15:56:13;14.80;99.90
14093;DHT22;7123;49.468;10.992;2023-04-07T15:58:40;14.70;99.90
14093;DHT22;7123;49.468;10.992;2023-04-07T16:01:07;14.80;99.90
14093;DHT22;7123;49.468;10.992;2023-04-07T16:03:34;15.00;99.90
14093;DHT22;7123;49.468;10.992;2023-04-07T16:06:01;15.20;99.90